EDT,Max TemperatureF,Mean TemperatureF,Min TemperatureF,Max Dew PointF,MeanDew PointF,Min DewpointF,Max Humidity, Mean Humidity, Min Humidity, Max Sea Level PressureIn, Mean Sea Level PressureIn, Min Sea Level PressureIn, Max VisibilityMiles, Mean VisibilityMiles, Min VisibilityMiles, Max Wind SpeedMPH, Mean Wind SpeedMPH, Max Gust SpeedMPH,PrecipitationIn, CloudCover, Events, WindDirDegrees
2012-8-1,86,73,59,63,59,53,93,64,34,29.98,29.94,29.86,10,10,10,13,3,15,0.00,2,Fog,299
2012-8-2,89,78,66,71,65,60,87,65,43,29.89,29.87,29.84,10,10,10,16,6,20,T,5,,226
2012-8-3,93,82,71,73,69,68,93,69,44,29.94,29.90,29.88,10,10,9,13,7,16,0.00,1,,86
2012-8-4,92,81,70,73,69,66,93,69,44,29.95,29.88,29.78,10,10,7,17,6,22,0.06,5,Rain-Thunderstorm,158
2012-8-5,81,71,60,72,63,52,93,67,40,30.15,29.96,29.83,10,10,9,24,12,30,T,5,Rain,268
2012-8-6,84,69,54,58,52,47,86,61,35,30.18,30.11,30.02,10,10,10,16,4,21,0.00,1,Fog,225
2012-8-7,88,74,60,65,57,51,78,56,34,30.00,29.96,29.91,10,10,10,17,7,23,0.00,3,,246
2012-8-8,87,76,65,63,56,53,73,54,34,30.02,29.98,29.95,10,10,10,13,7,20,T,7,Rain,37
2012-8-9,71,66,61,63,61,55,97,77,57,29.97,29.92,29.85,10,9,2,23,9,,0.66,8,Rain,47
2012-8-10,62,60,57,59,57,54,93,87,80,29.87,29.82,29.79,10,8,2,23,14,32,1.80,8,Rain,350
2012-8-11,77,69,61,57,56,54,90,70,50,29.97,29.88,29.82,10,10,10,21,11,26,T,7,,322
2012-8-12,79,67,54,58,55,52,93,70,46,30.03,30.00,29.97,10,10,10,16,5,18,0.00,5,,255
2012-8-13,68,66,63,63,60,55,93,86,78,30.01,29.99,29.96,10,10,8,9,3,,0.10,8,Rain,157
2012-8-14,80,71,61,62,60,58,97,73,49,29.97,29.94,29.90,10,7,0,14,3,22,0.00,6,Fog-Rain,289
2012-8-15,84,71,57,64,59,55,97,69,40,29.97,29.94,29.91,10,7,1,13,3,17,0.00,4,Fog,207
2012-8-16,77,71,65,67,63,60,93,81,68,29.94,29.84,29.73,10,10,4,24,11,30,0.38,7,Rain-Thunderstorm,215
2012-8-17,74,64,53,59,53,47,84,67,49,30.02,29.94,29.86,10,10,10,18,9,24,0.00,2,,303
2012-8-18,75,62,48,53,50,46,89,65,41,30.05,30.01,29.96,10,10,10,13,3,16,0.00,2,,245
2012-8-19,77,65,53,57,54,49,93,68,43,29.99,29.96,29.92,10,10,3,21,3,24,0.12,4,Rain-Thunderstorm,224
2012-8-20,76,65,53,57,52,47,100,69,38,30.01,29.97,29.95,10,9,2,9,3,12,0.00,2,Fog,35
2012-8-21,79,65,51,55,52,49,93,66,39,30.10,30.06,30.01,10,10,10,13,4,21,0.00,2,Fog,290
2012-8-22,81,67,52,55,52,50,96,66,35,30.16,30.11,30.08,10,10,10,10,5,,0.00,1,Fog,198
2012-8-23,87,70,53,64,57,53,93,64,35,30.14,30.10,30.07,10,10,10,15,7,18,0.00,2,,183
2012-8-24,89,76,63,62,60,57,84,60,36,30.10,30.06,30.03,10,10,10,12,6,16,0.00,3,,158
2012-8-25,92,78,64,63,60,57,84,58,32,30.10,30.06,30.04,10,10,10,15,5,18,0.00,2,,168
2012-8-26,90,78,66,70,64,60,87,65,43,30.09,30.04,30.00,10,10,10,18,8,28,0.13,5,Rain,183
2012-8-27,86,76,66,70,65,52,93,64,34,30.06,30.02,29.99,10,8,2,17,7,25,0.09,5,Rain,317
2012-8-28,81,71,60,59,55,54,84,62,39,30.16,30.10,30.04,10,10,10,15,5,20,0.00,2,,2
2012-8-29,81,68,55,59,56,54,93,68,42,30.14,30.09,30.04,10,10,10,10,3,13,0.00,1,,107
2012-8-30,86,72,57,59,56,53,87,61,34,30.09,30.03,29.96,10,10,10,17,9,26,0.00,1,,200
2012-8-31,89,79,69,65,61,56,66,55,43,30.07,30.02,29.97,10,10,10,25,11,32,0.00,2,,249